Time;durP1;ratioP1;P1;durP2;ratioP2;P2;SDS_P1;SDS_P2;PMS_P1;PMS_P2;Temp;Humidity;BMP_temperature;BMP_pressure;BME280_temperature;BME280_humidity;BME280_pressure;Samples;Min_cycle;Max_cycle;Signal;HPM_P1;HPM_P2
2023/02/05 00:01:52;;;;;;;7.07;3.80;;;6.10;99.90;;;;;;4978948;28;20463;-71
2023/02/05 00:04:18;;;;;;;10.47;4.70;;;6.10;99.90;;;;;;5001600;28;20484;-71
2023/02/05 00:06:44;;;;;;;4.77;3.87;;;6.10;99.90;;;;;;4984461;28;20462;-70
2023/02/05 00:09:10;;;;;;;5.20;3.80;;;6.10;99.90;;;;;;4981894;28;20494;-71
2023/02/05 00:11:36;;;;;;;4.80;3.60;;;6.10;99.90;;;;;;4991850;28;20500;-70
2023/02/05 00:14:02;;;;;;;4.50;4.10;;;5.80;99.90;;;;;;4987788;28;20485;-70
2023/02/05 00:16:28;;;;;;;6.47;3.90;;;5.80;99.90;;;;;;5007520;28;20699;-70
2023/02/05 00:18:55;;;;;;;6.23;4.30;;;5.90;99.90;;;;;;4984276;28;20323;-71
2023/02/05 00:21:22;;;;;;;7.37;3.70;;;5.90;99.90;;;;;;5002582;28;20973;-71
2023/02/05 00:23:48;;;;;;;5.20;3.73;;;5.90;99.90;;;;;;4995210;28;21047;-71
2023/02/05 00:26:14;;;;;;;7.40;4.10;;;5.90;99.90;;;;;;5011718;28;20460;-71
2023/02/05 00:28:42;;;;;;;5.70;3.93;;;6.00;99.90;;;;;;4984846;28;20432;-70
2023/02/05 00:31:26;;;;;;;7.70;3.97;;;6.00;99.90;;;;;;5012633;28;20454;-70
2023/02/05 00:33:52;;;;;;;9.60;4.40;;;6.00;99.90;;;;;;4993466;28;20473;-70
2023/02/05 00:36:19;;;;;;;8.60;4.33;;;6.00;99.90;;;;;;5010612;28;20465;-71
2023/02/05 00:38:45;;;;;;;4.70;3.53;;;5.80;99.90;;;;;;4983072;28;20560;-71
2023/02/05 00:41:12;;;;;;;6.53;3.80;;;5.80;99.90;;;;;;4986927;28;20516;-69
2023/02/05 00:43:38;;;;;;;9.03;3.80;;;5.80;99.90;;;;;;4991855;28;20482;-70
2023/02/05 00:46:04;;;;;;;5.57;3.33;;;5.90;99.90;;;;;;4998933;28;20462;-71
2023/02/05 00:48:30;;;;;;;7.30;3.70;;;5.90;99.90;;;;;;4995373;28;20544;-71
2023/02/05 00:50:56;;;;;;;7.73;4.17;;;5.90;99.90;;;;;;4998837;28;20540;-71
2023/02/05 00:53:23;;;;;;;7.17;4.73;;;5.90;99.90;;;;;;4987373;28;20234;-70
2023/02/05 00:55:49;;;;;;;6.10;4.40;;;5.90;99.90;;;;;;4997910;28;20226;-71
2023/02/05 00:58:15;;;;;;;8.57;4.00;;;5.90;99.90;;;;;;4985786;28;20467;-71
2023/02/05 01:00:41;;;;;;;3.97;3.43;;;5.90;99.90;;;;;;4978844;28;20451;-71
2023/02/05 01:03:07;;;;;;;5.80;3.90;;;5.90;99.90;;;;;;4987247;28;20558;-71
2023/02/05 01:05:35;;;;;;;8.30;3.77;;;5.90;99.90;;;;;;4985565;28;20557;-71
2023/02/05 01:08:01;;;;;;;6.60;4.73;;;5.90;99.90;;;;;;5001370;28;20988;-70
2023/02/05 01:10:27;;;;;;;9.30;3.77;;;5.90;99.90;;;;;;5005734;28;20460;-71
2023/02/05 01:12:52;;;;;;;10.67;4.10;;;5.90;99.90;;;;;;4998663;28;20454;-71
2023/02/05 01:15:18;;;;;;;5.40;3.67;;;5.90;99.90;;;;;;5005072;28;20230;-71
2023/02/05 01:17:44;;;;;;;14.10;5.20;;;5.90;99.90;;;;;;4998034;28;20245;-71
2023/02/05 01:20:12;;;;;;;7.27;4.60;;;5.90;99.90;;;;;;4998817;28;20871;-72
2023/02/05 01:22:37;;;;;;;6.57;4.87;;;5.90;99.90;;;;;;5000085;28;20266;-72
2023/02/05 01:25:03;;;;;;;7.20;4.90;;;5.80;99.90;;;;;;4998263;28;20478;-71
2023/02/05 01:27:31;;;;;;;9.43;6.00;;;5.80;99.90;;;;;;4990664;28;20577;-72
2023/02/05 01:29:57;;;;;;;8.27;5.17;;;5.80;99.90;;;;;;5000197;28;20460;-71
2023/02/05 01:32:23;;;;;;;8.10;4.73;;;5.80;99.90;;;;;;5003748;28;20453;-72
2023/02/05 01:34:48;;;;;;;6.73;4.83;;;5.80;99.90;;;;;;5001898;28;20226;-71
2023/02/05 01:37:14;;;;;;;5.43;4.40;;;5.80;99.90;;;;;;4983652;28;20313;-71
2023/02/05 01:39:40;;;;;;;7.97;5.33;;;5.80;99.90;;;;;;5000978;28;20229;-72
2023/02/05 01:42:27;;;;;;;7.50;4.70;;;5.80;99.90;;;;;;4986696;28;20878;-71
2023/02/05 01:45:35;;;;;;;9.07;5.87;;;5.80;99.90;;;;;;4999861;28;20313;-72
2023/02/05 01:48:03;;;;;;;8.87;5.50;;;5.80;99.90;;;;;;4976009;28;21001;-71
2023/02/05 01:50:37;;;;;;;6.23;4.60;;;5.80;99.90;;;;;;5003366;28;20469;-72
2023/02/05 01:53:07;;;;;;;4.70;4.23;;;5.80;99.90;;;;;;5002669;28;20461;-71
2023/02/05 01:55:38;;;;;;;3.87;3.50;;;5.80;99.90;;;;;;4999427;28;20477;-72
2023/02/05 01:58:03;;;;;;;6.13;4.47;;;5.80;99.90;;;;;;4992029;28;20446;-71
2023/02/05 02:00:30;;;;;;;10.47;5.23;;;5.80;99.90;;;;;;5006533;28;20540;-72
2023/02/05 02:02:56;;;;;;;6.93;4.60;;;5.80;99.90;;;;;;5008265;28;20277;-71
2023/02/05 02:05:21;;;;;;;5.67;4.07;;;5.80;99.90;;;;;;5009663;28;20479;-71
2023/02/05 02:07:47;;;;;;;9.67;4.63;;;5.80;99.90;;;;;;4999162;28;20964;-71
2023/02/05 02:10:15;;;;;;;9.77;5.60;;;5.90;99.90;;;;;;5000090;28;20223;-71
2023/02/05 02:12:43;;;;;;;8.20;5.43;;;5.90;99.90;;;;;;4991926;28;20249;-70
2023/02/05 02:15:22;;;;;;;11.30;5.90;;;5.80;99.90;;;;;;4988618;28;20459;-71
2023/02/05 02:17:53;;;;;;;6.20;5.23;;;5.80;99.90;;;;;;5003374;28;20973;-71
2023/02/05 02:20:22;;;;;;;7.83;5.30;;;5.80;99.90;;;;;;5005690;28;20515;-71
2023/02/05 02:22:53;;;;;;;6.40;4.67;;;5.80;99.90;;;;;;5006333;28;20491;-72
2023/02/05 02:25:31;;;;;;;11.70;5.17;;;5.80;99.90;;;;;;4992101;28;20541;-70
2023/02/05 02:28:10;;;;;;;7.27;4.70;;;5.80;99.90;;;;;;5003299;28;20530;-71
2023/02/05 02:30:51;;;;;;;10.73;5.87;;;5.80;99.90;;;;;;5005349;28;20461;-70
2023/02/05 02:33:40;;;;;;;6.50;4.90;;;5.80;99.90;;;;;;5006166;28;20457;-71
2023/02/05 02:36:11;;;;;;;7.93;4.53;;;5.80;99.90;;;;;;4992431;28;20451;-71
2023/02/05 02:39:00;;;;;;;7.27;4.80;;;5.80;99.90;;;;;;5002597;28;20450;-71
2023/02/05 02:41:31;;;;;;;8.43;5.13;;;5.80;99.90;;;;;;5003497;28;20450;-72
2023/02/05 02:44:02;;;;;;;6.97;5.13;;;5.80;99.90;;;;;;4988541;28;20528;-70
2023/02/05 02:46:41;;;;;;;7.27;5.00;;;5.80;99.90;;;;;;5001208;28;20453;-71
2023/02/05 02:49:14;;;;;;;7.80;4.50;;;5.80;99.90;;;;;;5021021;28;20519;-70
2023/02/05 02:51:41;;;;;;;8.80;4.93;;;5.80;99.90;;;;;;5002073;28;20457;-70
2023/02/05 02:54:12;;;;;;;9.93;4.70;;;5.80;99.90;;;;;;5004782;28;20477;-71
2023/02/05 02:56:39;;;;;;;8.50;5.37;;;5.80;99.90;;;;;;5004948;28;20456;-70
2023/02/05 02:59:13;;;;;;;9.60;5.07;;;5.80;99.90;;;;;;5005315;28;20516;-70
2023/02/05 03:01:41;;;;;;;5.67;5.10;;;5.80;99.90;;;;;;4989922;28;20476;-70
2023/02/05 03:04:11;;;;;;;5.13;4.07;;;5.80;99.90;;;;;;4992959;28;20463;-71
2023/02/05 03:06:39;;;;;;;7.37;4.90;;;5.80;99.90;;;;;;4997072;28;20485;-70
2023/02/05 03:09:19;;;;;;;10.70;5.27;;;5.80;99.90;;;;;;4981072;28;20454;-71
2023/02/05 03:11:45;;;;;;;11.47;5.40;;;5.80;99.90;;;;;;5003530;28;20468;-70
2023/02/05 03:14:10;;;;;;;9.53;5.20;;;5.80;99.90;;;;;;4992353;28;20466;-71
2023/02/05 03:16:37;;;;;;;7.70;4.77;;;5.80;99.90;;;;;;4987536;28;20224;-70
2023/02/05 03:19:05;;;;;;;11.03;4.40;;;5.80;99.90;;;;;;5007677;28;20477;-70
2023/02/05 03:21:45;;;;;;;6.50;4.23;;;5.80;99.90;;;;;;5007934;28;20218;-71
2023/02/05 03:24:11;;;;;;;8.80;3.97;;;5.80;99.90;;;;;;5009486;28;20552;-71
2023/02/05 03:26:37;;;;;;;8.17;4.83;;;5.80;99.90;;;;;;5006049;28;20452;-70
2023/02/05 03:29:18;;;;;;;7.53;5.07;;;5.80;99.90;;;;;;5005483;28;20485;-71
2023/02/05 03:32:16;;;;;;;7.53;4.50;;;5.80;99.90;;;;;;5007852;28;20462;-71
2023/02/05 03:35:09;;;;;;;8.60;5.17;;;5.80;99.90;;;;;;4996317;28;20452;-72
2023/02/05 03:38:14;;;;;;;8.73;4.93;;;5.80;99.90;;;;;;5010771;28;21000;-71
2023/02/05 03:40:43;;;;;;;8.03;5.00;;;5.70;99.90;;;;;;4974056;28;20450;-71
2023/02/05 03:43:15;;;;;;;6.23;4.10;;;5.70;99.90;;;;;;4992788;28;20478;-70
2023/02/05 03:45:49;;;;;;;7.40;5.17;;;5.70;99.90;;;;;;4992364;28;20493;-71
2023/02/05 03:48:36;;;;;;;8.97;4.97;;;5.70;99.90;;;;;;4976311;28;20460;-70
2023/02/05 03:51:30;;;;;;;7.07;4.60;;;5.70;99.90;;;;;;5005794;28;20456;-71
2023/02/05 03:54:24;;;;;;;6.63;5.20;;;5.70;99.90;;;;;;5010421;28;20461;-72
2023/02/05 03:57:15;;;;;;;12.70;4.30;;;5.70;99.90;;;;;;4996667;28;20847;-72
2023/02/05 03:59:42;;;;;;;8.20;3.97;;;5.70;99.90;;;;;;5016196;28;20450;-72
2023/02/05 04:02:09;;;;;;;11.10;5.13;;;5.70;99.90;;;;;;5017205;28;20450;-71
2023/02/05 04:04:39;;;;;;;10.07;4.70;;;5.70;99.90;;;;;;5008027;28;20592;-71
2023/02/05 04:07:07;;;;;;;9.67;5.20;;;5.70;99.90;;;;;;5011061;28;20501;-71
2023/02/05 04:09:34;;;;;;;6.93;4.53;;;5.70;99.90;;;;;;4996658;28;20459;-72
2023/02/05 04:12:00;;;;;;;7.10;4.97;;;5.80;99.90;;;;;;5005226;28;20794;-71
2023/02/05 04:14:25;;;;;;;5.83;4.97;;;5.80;99.90;;;;;;4993985;28;20230;-71
2023/02/05 04:16:51;;;;;;;11.87;4.87;;;5.70;99.90;;;;;;5010299;28;20231;-72
2023/02/05 04:19:19;;;;;;;8.60;5.00;;;5.70;99.90;;;;;;4994943;28;20226;-71
2023/02/05 04:21:45;;;;;;;9.37;4.57;;;5.70;99.90;;;;;;5026105;28;20454;-72
2023/02/05 04:24:11;;;;;;;10.43;5.90;;;5.70;99.90;;;;;;4997582;28;20521;-72
2023/02/05 04:26:37;;;;;;;6.97;4.67;;;5.80;99.90;;;;;;5011906;28;20215;-72
2023/02/05 04:29:05;;;;;;;7.27;4.93;;;5.80;99.90;;;;;;5009754;28;20238;-71
2023/02/05 04:31:36;;;;;;;7.43;4.40;;;5.70;99.90;;;;;;4998703;28;20461;-71
2023/02/05 04:34:02;;;;;;;7.43;4.63;;;5.70;99.90;;;;;;5011662;28;20461;-72
2023/02/05 04:36:27;;;;;;;9.03;4.83;;;5.70;99.90;;;;;;5010384;28;20469;-72
2023/02/05 04:38:54;;;;;;;5.57;4.30;;;5.60;99.90;;;;;;4993896;28;20239;-72
2023/02/05 04:41:20;;;;;;;7.50;4.50;;;5.60;99.90;;;;;;4994278;28;20528;-71
2023/02/05 04:43:46;;;;;;;9.10;5.20;;;5.70;99.90;;;;;;5010119;28;20567;-71
2023/02/05 04:46:12;;;;;;;8.27;4.90;;;5.70;99.90;;;;;;5008558;28;20218;-71
2023/02/05 04:48:38;;;;;;;5.83;4.70;;;5.70;99.90;;;;;;5029770;28;20647;-72
2023/02/05 04:51:08;;;;;;;6.70;5.03;;;5.70;99.90;;;;;;5005746;28;20210;-70
2023/02/05 04:53:33;;;;;;;10.97;6.07;;;5.70;99.90;;;;;;5030044;28;20460;-71
2023/02/05 04:56:14;;;;;;;7.40;5.33;;;5.70;99.90;;;;;;5011427;28;20451;-72
2023/02/05 04:58:41;;;;;;;9.17;5.53;;;5.70;99.90;;;;;;4997855;28;20245;-71
2023/02/05 05:01:15;;;;;;;6.03;5.43;;;5.70;99.90;;;;;;5011370;28;20452;-71
2023/02/05 05:03:41;;;;;;;12.37;6.60;;;5.70;99.90;;;;;;5010567;28;20468;-72
2023/02/05 05:06:07;;;;;;;8.80;5.23;;;5.70;99.90;;;;;;5010434;28;20453;-72
2023/02/05 05:08:32;;;;;;;6.30;4.70;;;5.70;99.90;;;;;;5010119;28;20450;-72
2023/02/05 05:10:59;;;;;;;11.93;5.40;;;5.80;99.90;;;;;;5007349;28;20977;-72
2023/02/05 05:13:25;;;;;;;8.40;5.27;;;5.80;99.90;;;;;;4997769;28;20609;-71
2023/02/05 05:15:55;;;;;;;7.80;5.80;;;5.70;99.90;;;;;;5011708;28;20511;-72
2023/02/05 05:18:21;;;;;;;7.50;5.47;;;5.70;99.90;;;;;;5008997;28;21029;-72
2023/02/05 05:20:47;;;;;;;10.33;5.17;;;5.80;99.90;;;;;;5006999;28;20533;-72
2023/02/05 05:23:12;;;;;;;6.60;5.50;;;5.70;99.90;;;;;;5009812;28;20477;-71
2023/02/05 05:25:46;;;;;;;7.73;4.80;;;5.70;99.90;;;;;;5000673;28;20233;-72
2023/02/05 05:28:13;;;;;;;9.83;5.57;;;5.70;99.90;;;;;;4988801;28;20216;-72
2023/02/05 05:30:40;;;;;;;5.20;4.50;;;5.70;99.90;;;;;;4970722;28;20459;-71
2023/02/05 05:33:06;;;;;;;10.00;4.97;;;5.80;99.90;;;;;;4991525;28;20515;-72
2023/02/05 05:35:32;;;;;;;9.67;5.37;;;5.70;99.90;;;;;;5006617;28;20510;-71
2023/02/05 05:37:58;;;;;;;14.50;6.23;;;5.70;99.90;;;;;;5010939;28;20698;-72
2023/02/05 05:45:59;;;;;;;9.50;5.73;;;5.70;99.90;;;;;;5009163;28;20512;-72
2023/02/05 05:48:24;;;;;;;7.50;5.37;;;5.70;99.90;;;;;;5009486;28;20532;-72
2023/02/05 05:50:50;;;;;;;12.53;6.20;;;5.80;99.90;;;;;;4992420;28;20212;-73
2023/02/05 05:53:16;;;;;;;7.03;5.30;;;5.70;99.90;;;;;;4999146;28;20253;-72
2023/02/05 05:55:42;;;;;;;6.20;5.20;;;5.70;99.90;;;;;;4987852;28;20227;-72
2023/02/05 05:58:08;;;;;;;10.97;5.50;;;5.70;99.90;;;;;;5007797;28;20234;-72
2023/02/05 06:00:35;;;;;;;8.67;6.03;;;5.80;99.90;;;;;;5009688;28;20678;-72
2023/02/05 06:03:00;;;;;;;9.67;5.20;;;5.80;99.90;;;;;;4981821;28;20453;-73
2023/02/05 06:05:26;;;;;;;11.60;5.73;;;5.80;99.90;;;;;;4995273;28;20461;-73
2023/02/05 06:07:51;;;;;;;17.50;6.53;;;5.80;99.90;;;;;;5009848;28;20225;-72
2023/02/05 06:10:18;;;;;;;10.63;6.20;;;5.80;99.90;;;;;;4993198;28;20218;-72
2023/02/05 06:12:44;;;;;;;9.40;6.30;;;5.80;99.90;;;;;;5009242;28;20217;-72
2023/02/05 06:15:10;;;;;;;8.87;5.80;;;5.80;99.90;;;;;;5028223;28;20459;-72
2023/02/05 06:17:36;;;;;;;13.23;6.83;;;5.80;99.90;;;;;;5018627;28;20234;-72
2023/02/05 06:20:02;;;;;;;13.60;5.60;;;5.80;99.90;;;;;;4996866;28;20465;-73
2023/02/05 06:22:27;;;;;;;8.20;5.60;;;5.80;99.90;;;;;;5002124;28;20716;-72
2023/02/05 06:24:53;;;;;;;5.23;4.73;;;5.80;99.90;;;;;;5008745;28;20230;-72
2023/02/05 06:27:18;;;;;;;6.20;5.10;;;5.80;99.90;;;;;;4992245;28;20310;-72
2023/02/05 06:29:44;;;;;;;10.07;6.00;;;5.80;99.90;;;;;;4992163;28;20223;-72
2023/02/05 06:32:10;;;;;;;7.40;5.63;;;5.80;99.90;;;;;;5009263;28;20249;-73
2023/02/05 06:34:35;;;;;;;8.40;5.60;;;5.70;99.90;;;;;;5008473;28;20222;-72
2023/02/05 06:37:02;;;;;;;15.03;6.07;;;5.70;99.90;;;;;;5008754;28;20571;-72
2023/02/05 06:39:27;;;;;;;7.77;6.40;;;5.70;99.90;;;;;;5000717;28;20223;-72
2023/02/05 06:41:53;;;;;;;9.87;6.20;;;5.70;99.90;;;;;;5007472;28;20533;-72
2023/02/05 06:44:19;;;;;;;8.30;5.60;;;5.70;99.90;;;;;;5009437;28;20260;-72
2023/02/05 06:46:44;;;;;;;10.07;6.60;;;5.70;99.90;;;;;;5002448;28;20257;-72
2023/02/05 06:49:10;;;;;;;7.93;5.57;;;5.70;99.90;;;;;;5003586;28;20230;-72
2023/02/05 06:51:36;;;;;;;8.00;5.20;;;5.80;99.90;;;;;;5007698;28;20230;-72
2023/02/05 06:54:01;;;;;;;9.17;6.10;;;5.80;99.90;;;;;;5008857;28;20245;-72
2023/02/05 06:56:27;;;;;;;7.30;5.30;;;5.80;99.90;;;;;;4990300;28;20231;-72
2023/02/05 06:58:53;;;;;;;8.90;5.70;;;5.70;99.90;;;;;;5009186;28;20225;-72
2023/02/05 07:01:18;;;;;;;10.60;6.17;;;5.70;99.90;;;;;;5008081;28;20594;-72
2023/02/05 07:03:44;;;;;;;8.63;6.27;;;5.70;99.90;;;;;;4990641;28;20219;-73
2023/02/05 07:06:10;;;;;;;7.90;6.17;;;5.80;99.90;;;;;;4993115;28;20665;-72
2023/02/05 07:08:36;;;;;;;10.50;7.40;;;5.80;99.90;;;;;;4996973;28;20222;-73
2023/02/05 07:11:02;;;;;;;16.70;8.57;;;5.80;99.90;;;;;;5015782;28;20449;-73
2023/02/05 07:13:28;;;;;;;12.50;7.90;;;5.80;99.90;;;;;;5016082;28;20303;-71
2023/02/05 07:15:54;;;;;;;11.67;7.30;;;5.70;99.90;;;;;;5028617;28;20589;-73
2023/02/05 07:18:19;;;;;;;10.03;6.70;;;5.60;99.90;;;;;;4997179;28;20466;-73
2023/02/05 07:20:45;;;;;;;10.87;7.10;;;5.60;99.90;;;;;;5016076;28;20241;-72
2023/02/05 07:23:11;;;;;;;9.80;6.90;;;5.60;99.90;;;;;;5014996;28;20297;-73
2023/02/05 07:25:36;;;;;;;14.43;6.97;;;5.70;99.90;;;;;;5015187;28;20227;-72
2023/02/05 07:28:04;;;;;;;10.03;6.50;;;5.70;99.90;;;;;;5012910;28;20211;-72
2023/02/05 07:30:30;;;;;;;8.80;6.10;;;5.70;99.90;;;;;;5015078;28;20234;-72
2023/02/05 07:32:56;;;;;;;10.17;6.23;;;5.70;99.90;;;;;;5013756;28;20467;-72
2023/02/05 07:35:21;;;;;;;7.90;6.70;;;5.70;99.90;;;;;;5015249;28;20221;-72
2023/02/05 07:37:47;;;;;;;12.77;7.30;;;5.70;99.90;;;;;;5014462;28;20226;-72
2023/02/05 07:40:12;;;;;;;10.23;6.77;;;5.70;99.90;;;;;;5016157;28;20222;-72
2023/02/05 07:42:38;;;;;;;12.63;6.93;;;5.80;99.90;;;;;;4998500;28;20222;-72
2023/02/05 07:45:06;;;;;;;8.93;6.60;;;5.80;99.90;;;;;;4999192;28;20317;-72
2023/02/05 07:47:32;;;;;;;10.43;6.30;;;5.80;99.90;;;;;;5004343;28;20483;-72
2023/02/05 07:49:58;;;;;;;9.77;5.97;;;5.80;99.90;;;;;;5012333;28;20966;-72
2023/02/05 07:52:23;;;;;;;15.83;6.90;;;5.70;99.90;;;;;;5014171;28;20219;-72
2023/02/05 07:54:49;;;;;;;14.93;7.07;;;5.70;99.90;;;;;;5013602;28;20227;-72
2023/02/05 07:57:15;;;;;;;9.70;6.27;;;5.80;99.90;;;;;;5013252;28;20233;-73
2023/02/05 07:59:40;;;;;;;9.83;6.40;;;5.80;99.90;;;;;;4999538;28;20702;-72
2023/02/05 08:02:06;;;;;;;8.17;6.60;;;5.80;99.90;;;;;;4993695;28;20218;-72
2023/02/05 08:04:32;;;;;;;6.67;5.23;;;5.80;99.90;;;;;;5011263;28;20255;-72
2023/02/05 08:06:57;;;;;;;9.00;5.73;;;5.80;99.90;;;;;;5013860;28;20225;-72
2023/02/05 08:09:23;;;;;;;8.17;5.87;;;5.90;99.90;;;;;;5013463;28;20214;-73
2023/02/05 08:11:49;;;;;;;18.57;6.37;;;5.80;99.90;;;;;;4996157;28;20217;-72
2023/02/05 08:14:14;;;;;;;10.70;6.37;;;5.90;99.90;;;;;;5014694;28;20281;-71
2023/02/05 08:16:40;;;;;;;12.17;6.00;;;5.90;99.90;;;;;;5012433;28;20218;-71
2023/02/05 08:19:06;;;;;;;8.67;5.63;;;5.90;99.90;;;;;;4995148;28;20214;-71
2023/02/05 08:21:31;;;;;;;10.30;6.53;;;5.90;99.90;;;;;;4993601;28;20214;-71
2023/02/05 08:23:57;;;;;;;10.13;6.80;;;5.90;99.90;;;;;;5010253;28;20523;-72
2023/02/05 08:26:23;;;;;;;10.03;5.77;;;5.90;99.90;;;;;;5010774;28;20210;-71
2023/02/05 08:28:49;;;;;;;9.17;6.20;;;5.90;99.90;;;;;;5008621;28;20536;-70
2023/02/05 08:31:17;;;;;;;10.10;6.13;;;5.90;99.90;;;;;;5012636;28;20314;-72
2023/02/05 08:33:43;;;;;;;8.60;6.67;;;5.90;99.90;;;;;;5010344;28;20218;-71
2023/02/05 08:36:10;;;;;;;7.30;5.07;;;5.90;99.90;;;;;;5011297;28;20438;-71
2023/02/05 08:38:35;;;;;;;12.37;6.43;;;5.90;99.90;;;;;;5009459;28;20510;-71
2023/02/05 08:41:12;;;;;;;7.83;6.40;;;6.00;99.90;;;;;;4995427;28;20450;-71
2023/02/05 08:43:43;;;;;;;10.97;6.77;;;6.00;99.90;;;;;;5010819;28;20218;-70
2023/02/05 08:46:10;;;;;;;10.57;6.73;;;5.90;99.90;;;;;;5010520;28;20569;-68
2023/02/05 08:48:36;;;;;;;15.40;6.80;;;5.90;99.90;;;;;;5010100;28;20847;-69
2023/02/05 08:51:02;;;;;;;23.80;7.60;;;5.90;99.90;;;;;;5009901;28;20453;-69
2023/02/05 08:53:29;;;;;;;13.43;7.10;;;5.90;99.90;;;;;;5010697;28;20541;-71
2023/02/05 08:55:59;;;;;;;9.37;5.80;;;5.90;99.90;;;;;;5008338;28;20462;-72
2023/02/05 08:58:25;;;;;;;11.33;7.23;;;6.00;99.90;;;;;;5010293;28;20465;-71
2023/02/05 09:00:52;;;;;;;12.00;7.90;;;5.90;99.90;;;;;;4995197;28;20479;-71
2023/02/05 09:03:18;;;;;;;16.30;7.30;;;6.00;99.90;;;;;;5009692;28;20516;-71
2023/02/05 09:05:44;;;;;;;13.20;7.50;;;6.00;99.90;;;;;;5004148;28;20457;-71
2023/02/05 09:08:09;;;;;;;11.77;8.20;;;6.00;99.90;;;;;;5010952;28;20447;-70
2023/02/05 09:10:35;;;;;;;21.27;8.20;;;6.00;99.90;;;;;;5007138;28;20679;-72
2023/02/05 09:13:01;;;;;;;16.83;8.60;;;5.90;99.90;;;;;;4991908;28;20305;-73
2023/02/05 09:15:26;;;;;;;22.83;7.80;;;6.00;99.90;;;;;;4993794;28;20304;-72
2023/02/05 09:17:52;;;;;;;14.63;8.87;;;5.90;99.90;;;;;;5007868;28;20563;-72
2023/02/05 09:20:18;;;;;;;18.47;9.33;;;5.90;99.90;;;;;;5009896;28;20242;-71
2023/02/05 09:22:43;;;;;;;14.30;8.93;;;6.00;99.90;;;;;;5004515;28;20219;-71
2023/02/05 09:25:10;;;;;;;12.50;6.57;;;5.90;99.90;;;;;;5010292;28;20226;-73
2023/02/05 09:27:36;;;;;;;11.97;7.90;;;5.90;99.90;;;;;;5006073;28;20244;-71
2023/02/05 09:30:02;;;;;;;13.33;7.93;;;5.90;99.90;;;;;;4989388;28;20474;-73
2023/02/05 09:32:28;;;;;;;12.63;7.03;;;6.00;99.90;;;;;;5008605;28;20237;-71
2023/02/05 09:34:54;;;;;;;11.67;8.33;;;6.00;99.90;;;;;;5009404;28;20462;-72
2023/02/05 09:37:19;;;;;;;13.33;8.10;;;6.00;99.90;;;;;;5004168;28;20230;-72
2023/02/05 09:39:45;;;;;;;19.23;11.33;;;6.00;99.90;;;;;;4991083;28;20704;-71
2023/02/05 09:42:33;;;;;;;23.20;9.50;;;6.00;99.90;;;;;;5010921;28;20319;-72
2023/02/05 09:45:02;;;;;;;16.77;9.27;;;6.10;99.90;;;;;;5008614;28;20253;-71
2023/02/05 09:47:46;;;;;;;20.80;10.20;;;6.10;99.90;;;;;;4987284;28;20465;-73
2023/02/05 09:50:24;;;;;;;14.83;9.57;;;6.10;99.90;;;;;;4988921;28;20537;-70
2023/02/05 09:52:52;;;;;;;12.20;8.27;;;6.00;99.90;;;;;;5005981;28;20497;-72
2023/02/05 09:55:27;;;;;;;16.57;8.93;;;6.10;99.90;;;;;;4999762;28;20468;-70
2023/02/05 09:57:59;;;;;;;11.07;7.97;;;6.10;99.90;;;;;;5008069;28;20910;-71
2023/02/05 10:00:52;;;;;;;122.70;49.47;;;6.10;99.90;;;;;;4986483;28;20500;-69
2023/02/05 10:03:30;;;;;;;65.87;31.63;;;6.10;99.90;;;;;;4991172;28;20520;-71
2023/02/05 10:06:08;;;;;;;31.60;15.77;;;6.10;99.90;;;;;;5009588;28;20468;-70
2023/02/05 10:09:06;;;;;;;27.03;14.40;;;6.20;99.90;;;;;;4991578;28;20515;-72
2023/02/05 10:11:45;;;;;;;37.40;16.60;;;6.20;99.90;;;;;;5005476;28;20445;-71
2023/02/05 10:14:36;;;;;;;37.83;17.00;;;6.20;99.90;;;;;;5006764;28;20469;-73
2023/02/05 10:17:30;;;;;;;28.10;16.30;;;6.20;99.90;;;;;;4989859;28;20457;-70
2023/02/05 10:20:38;;;;;;;35.10;14.63;;;6.20;99.90;;;;;;5006168;28;20456;-72
2023/02/05 10:23:14;;;;;;;31.10;15.90;;;6.20;99.90;;;;;;4989346;28;20450;-71
2023/02/05 10:26:08;;;;;;;22.90;13.77;;;6.30;99.90;;;;;;5014674;28;20471;-71
2023/02/05 10:29:07;;;;;;;18.80;11.27;;;6.30;99.90;;;;;;5006752;28;20516;-71
2023/02/05 10:31:40;;;;;;;15.40;10.00;;;6.30;99.90;;;;;;4991959;28;20468;-73
2023/02/05 10:34:51;;;;;;;15.27;10.40;;;6.30;99.90;;;;;;4998198;28;20477;-72
2023/02/05 10:37:38;;;;;;;17.57;8.70;;;6.30;99.90;;;;;;4998293;28;20466;-72
2023/02/05 10:40:15;;;;;;;11.03;7.10;;;6.30;99.90;;;;;;5005330;28;20833;-71
2023/02/05 10:43:05;;;;;;;13.70;8.70;;;6.30;99.90;;;;;;5008956;28;20461;-73
2023/02/05 10:45:31;;;;;;;12.90;8.60;;;6.30;99.90;;;;;;5010326;28;20858;-73
2023/02/05 10:48:30;;;;;;;23.93;12.20;;;6.30;99.90;;;;;;5006135;28;20480;-73
2023/02/05 10:50:58;;;;;;;28.30;17.20;;;6.40;99.90;;;;;;4991190;28;20800;-72
2023/02/05 10:53:26;;;;;;;17.77;13.27;;;6.40;99.90;;;;;;5007891;28;20884;-72
2023/02/05 10:55:53;;;;;;;12.60;9.97;;;6.40;99.90;;;;;;4991060;28;20996;-72
2023/02/05 10:58:33;;;;;;;17.03;10.57;;;6.40;99.90;;;;;;4991297;28;20533;-73
2023/02/05 11:01:00;;;;;;;19.77;13.47;;;6.40;99.90;;;;;;5006236;28;20450;-73
2023/02/05 11:03:25;;;;;;;19.37;13.80;;;6.40;99.90;;;;;;5007518;28;20473;-72
2023/02/05 11:05:52;;;;;;;23.23;12.57;;;6.40;99.90;;;;;;5007233;28;20479;-73
2023/02/05 11:08:34;;;;;;;14.27;9.67;;;6.40;99.90;;;;;;4987537;28;20302;-73
2023/02/05 11:11:00;;;;;;;15.77;9.77;;;6.50;99.90;;;;;;5006994;28;20450;-71
2023/02/05 11:13:27;;;;;;;12.20;8.93;;;6.50;99.90;;;;;;4990902;28;20457;-71
2023/02/05 11:16:05;;;;;;;16.00;9.07;;;6.50;99.90;;;;;;5008232;28;20473;-72
2023/02/05 11:18:44;;;;;;;11.93;8.43;;;6.50;99.90;;;;;;5007404;28;20454;-72
2023/02/05 11:21:10;;;;;;;14.13;7.67;;;6.50;99.90;;;;;;5006592;28;20470;-71
2023/02/05 11:23:41;;;;;;;16.63;9.17;;;6.50;99.90;;;;;;4988244;28;20978;-72
2023/02/05 11:26:07;;;;;;;12.53;8.80;;;6.60;99.90;;;;;;4993447;28;20450;-72
2023/02/05 11:28:40;;;;;;;13.57;9.00;;;6.60;99.90;;;;;;5006537;28;20881;-72
2023/02/05 11:31:30;;;;;;;17.33;7.90;;;6.60;99.90;;;;;;5005675;28;20236;-72
2023/02/05 11:34:14;;;;;;;16.63;8.90;;;6.60;99.90;;;;;;5007297;28;20514;-72
2023/02/05 11:36:52;;;;;;;12.33;7.60;;;6.60;99.90;;;;;;4985802;28;20451;-71
2023/02/05 11:39:36;;;;;;;10.83;8.40;;;6.60;99.90;;;;;;5005737;28;20880;-71
2023/02/05 11:42:17;;;;;;;13.77;7.33;;;6.60;99.90;;;;;;5005024;28;20453;-72
2023/02/05 11:44:59;;;;;;;12.27;7.53;;;6.70;99.90;;;;;;5001528;28;20470;-72
2023/02/05 11:47:33;;;;;;;8.67;7.67;;;6.70;99.90;;;;;;5002982;28;20488;-72
2023/02/05 11:49:59;;;;;;;11.57;6.90;;;6.70;99.90;;;;;;5000221;28;20511;-72
2023/02/05 11:52:29;;;;;;;21.70;11.93;;;6.70;99.90;;;;;;4991315;28;20460;-72
2023/02/05 11:54:55;;;;;;;45.07;26.43;;;6.70;99.90;;;;;;4989054;28;20562;-72
2023/02/05 11:57:20;;;;;;;32.10;20.43;;;6.70;99.90;;;;;;5009770;28;20914;-71
2023/02/05 11:59:59;;;;;;;31.10;17.27;;;6.70;99.90;;;;;;5010414;28;20494;-73
2023/02/05 12:02:27;;;;;;;21.70;12.70;;;6.80;99.90;;;;;;5006308;28;20620;-72
2023/02/05 12:04:59;;;;;;;19.00;11.20;;;6.80;99.90;;;;;;5010706;28;20556;-71
2023/02/05 12:07:30;;;;;;;10.07;7.50;;;6.80;99.90;;;;;;4994679;28;20476;-72
2023/02/05 12:09:58;;;;;;;9.93;5.60;;;6.80;99.90;;;;;;5010684;28;20439;-71
2023/02/05 12:12:37;;;;;;;8.53;5.37;;;6.80;99.90;;;;;;5004073;28;20523;-71
2023/02/05 12:15:26;;;;;;;4.90;4.00;;;6.80;99.90;;;;;;5006378;28;20475;-71
2023/02/05 12:18:12;;;;;;;3.50;2.73;;;6.80;99.90;;;;;;5008898;28;20465;-70
2023/02/05 12:20:48;;;;;;;4.37;3.30;;;6.90;99.90;;;;;;4994488;28;20466;-72
2023/02/05 12:23:42;;;;;;;3.43;2.57;;;6.90;99.90;;;;;;4992080;28;20544;-72
2023/02/05 12:26:34;;;;;;;4.20;3.17;;;6.90;99.90;;;;;;5005751;28;21032;-72
2023/02/05 12:29:28;;;;;;;4.20;2.77;;;6.90;99.90;;;;;;5009232;28;20453;-71
2023/02/05 12:32:38;;;;;;;3.27;2.70;;;6.90;99.90;;;;;;4990260;28;20460;-72
2023/02/05 12:35:22;;;;;;;4.20;2.83;;;6.90;99.90;;;;;;5007413;28;20442;-71
2023/02/05 12:37:51;;;;;;;2.77;2.07;;;6.90;99.90;;;;;;5003885;28;20450;-72
2023/02/05 12:40:40;;;;;;;4.27;3.17;;;6.90;99.90;;;;;;5009183;28;20457;-72
2023/02/05 12:43:43;;;;;;;2.70;2.47;;;7.00;99.90;;;;;;5008669;28;20453;-71
2023/02/05 12:46:40;;;;;;;3.60;3.10;;;7.00;99.90;;;;;;4979597;28;20551;-71
2023/02/05 12:49:31;;;;;;;6.07;3.77;;;7.00;99.90;;;;;;5001358;28;20431;-71
2023/02/05 12:52:21;;;;;;;3.33;2.97;;;6.90;99.90;;;;;;4999360;28;20449;-72
2023/02/05 12:55:24;;;;;;;5.03;3.53;;;6.90;99.90;;;;;;5003682;28;20468;-71
2023/02/05 12:58:03;;;;;;;5.70;3.97;;;7.00;99.90;;;;;;5004929;28;20551;-71
2023/02/05 13:00:51;;;;;;;5.57;4.37;;;7.00;99.90;;;;;;4999885;28;20454;-74
2023/02/05 13:03:29;;;;;;;5.53;4.37;;;7.00;99.90;;;;;;4992465;28;20456;-71
2023/02/05 13:06:00;;;;;;;7.73;4.60;;;7.00;99.90;;;;;;4988858;28;20993;-71
2023/02/05 13:09:05;;;;;;;5.87;4.13;;;7.00;99.90;;;;;;5009409;28;20539;-71
2023/02/05 13:11:37;;;;;;;6.17;4.53;;;7.00;99.90;;;;;;4999463;28;20999;-72
2023/02/05 13:14:15;;;;;;;6.73;4.80;;;7.00;99.90;;;;;;5007197;28;20449;-71
2023/02/05 13:17:09;;;;;;;10.53;5.00;;;7.00;99.90;;;;;;5013176;28;20449;-73
2023/02/05 13:19:45;;;;;;;6.87;3.97;;;7.10;99.90;;;;;;4992209;28;20461;-73
2023/02/05 13:28:43;;;;;;;7.50;4.70;;;7.10;99.90;;;;;;4986326;28;20457;-71